createdAt,value
2023-04-07T00:02:27.620Z,28.91
2023-04-07T00:05:04.281Z,29.11
2023-04-07T00:07:52.378Z,29.04
2023-04-07T00:10:40.198Z,29.00
2023-04-07T00:13:23.813Z,28.45
2023-04-07T00:15:53.468Z,29.40
2023-04-07T00:18:22.664Z,29.11
2023-04-07T00:20:59.758Z,28.63
2023-04-07T00:23:33.914Z,28.46
2023-04-07T00:26:32.948Z,28.65
2023-04-07T00:29:06.165Z,28.60
2023-04-07T00:31:37.525Z,28.83
2023-04-07T00:34:15.911Z,28.79
2023-04-07T00:36:52.491Z,28.40
2023-04-07T00:39:23.783Z,28.46
2023-04-07T00:41:55.254Z,28.60
2023-04-07T00:44:24.668Z,28.51
2023-04-07T00:46:56.097Z,28.61
2023-04-07T00:49:28.760Z,28.61
2023-04-07T00:51:59.188Z,28.37
2023-04-07T00:54:30.741Z,28.34
2023-04-07T00:57:03.115Z,28.18
2023-04-07T00:59:46.370Z,28.06
2023-04-07T01:02:19.781Z,28.57
2023-04-07T01:04:53.584Z,28.25
2023-04-07T01:07:33.548Z,28.24
2023-04-07T01:10:08.554Z,28.20
2023-04-07T01:12:42.927Z,27.98
2023-04-07T01:15:21.712Z,27.75
2023-04-07T01:17:57.395Z,28.07
2023-04-07T01:20:28.844Z,28.09
2023-04-07T01:22:58.238Z,26.97
2023-04-07T01:25:59.495Z,27.39
2023-04-07T01:28:59.686Z,27.56
2023-04-07T01:31:36.815Z,27.68
2023-04-07T01:34:11.960Z,28.02
2023-04-07T01:36:46.158Z,28.07
2023-04-07T01:39:15.966Z,28.41
2023-04-07T01:41:55.373Z,28.14
2023-04-07T01:44:25.253Z,28.44
2023-04-07T01:46:59.961Z,28.01
2023-04-07T01:49:32.286Z,28.43
2023-04-07T01:52:07.306Z,27.84
2023-04-07T01:54:36.731Z,28.46
2023-04-07T01:57:11.856Z,28.59
2023-04-07T01:59:41.694Z,28.47
2023-04-07T02:02:13.937Z,27.99
2023-04-07T02:04:52.248Z,27.93
2023-04-07T02:07:26.405Z,28.24
2023-04-07T02:09:59.897Z,28.43
2023-04-07T02:12:35.897Z,27.97
2023-04-07T02:15:06.803Z,28.52
2023-04-07T02:17:41.195Z,28.02
2023-04-07T02:20:11.655Z,28.23
2023-04-07T02:22:58.090Z,28.56
2023-04-07T02:25:31.652Z,28.42
2023-04-07T02:28:03.100Z,28.54
2023-04-07T02:30:35.282Z,28.77
2023-04-07T02:33:14.518Z,28.47
2023-04-07T02:35:44.414Z,28.64
2023-04-07T02:38:14.877Z,27.30
2023-04-07T02:40:47.339Z,28.60
2023-04-07T02:43:22.796Z,28.36
2023-04-07T02:45:55.919Z,28.79
2023-04-07T02:48:30.532Z,28.49
2023-04-07T02:51:01.538Z,28.50
2023-04-07T02:53:33.470Z,28.25
2023-04-07T02:56:12.029Z,28.24
2023-04-07T02:58:42.061Z,28.60
2023-04-07T03:01:11.842Z,28.35
2023-04-07T03:04:10.764Z,28.51
2023-04-07T03:06:44.049Z,28.65
2023-04-07T03:09:14.855Z,28.90
2023-04-07T03:11:46.815Z,28.81
2023-04-07T03:14:19.518Z,28.89
2023-04-07T03:17:01.858Z,28.43
2023-04-07T03:19:36.957Z,28.30
2023-04-07T03:22:06.235Z,28.65
2023-04-07T03:24:38.660Z,28.72
2023-04-07T03:27:18.070Z,28.30
2023-04-07T03:29:48.192Z,28.70
2023-04-07T03:32:18.273Z,28.74
2023-04-07T03:34:59.458Z,28.37
2023-04-07T03:38:02.304Z,28.06
2023-04-07T03:40:36.170Z,28.63
2023-04-07T03:43:05.999Z,28.67
2023-04-07T03:45:53.360Z,28.97
2023-04-07T03:48:30.400Z,28.88
2023-04-07T03:51:02.790Z,28.69
2023-04-07T03:53:32.478Z,28.96
2023-04-07T03:56:05.375Z,29.06
2023-04-07T03:58:43.261Z,29.09
2023-04-07T04:01:19.866Z,29.15
2023-04-07T04:03:58.264Z,29.19
2023-04-07T04:06:32.463Z,28.03
2023-04-07T04:09:02.076Z,29.10
2023-04-07T04:11:32.005Z,29.22
2023-04-07T04:14:09.703Z,29.29
2023-04-07T04:16:42.574Z,29.14
2023-04-07T04:19:13.824Z,29.17
2023-04-07T04:21:46.594Z,28.88
2023-04-07T04:24:15.839Z,29.12
2023-04-07T04:26:47.266Z,29.15
2023-04-07T04:29:18.386Z,28.92
2023-04-07T04:31:57.118Z,28.94
2023-04-07T04:34:26.426Z,28.95
2023-04-07T04:39:44.865Z,29.08
2023-04-07T04:42:19.162Z,28.89
2023-04-07T04:44:50.357Z,29.16
2023-04-07T04:47:23.011Z,29.04
2023-04-07T04:50:00.163Z,28.71
2023-04-07T04:52:33.997Z,28.75
2023-04-07T04:55:08.305Z,29.04
2023-04-07T04:57:48.800Z,29.00
2023-04-07T05:00:21.369Z,29.08
2023-04-07T05:02:50.859Z,29.24
2023-04-07T05:05:22.730Z,29.38
2023-04-07T05:08:01.500Z,29.13
2023-04-07T05:10:30.362Z,29.13
2023-04-07T05:13:02.300Z,29.30
2023-04-07T05:15:31.929Z,29.25
2023-04-07T05:18:01.685Z,29.23
2023-04-07T05:20:30.991Z,29.19
2023-04-07T05:23:03.036Z,28.79
2023-04-07T05:25:32.888Z,29.03
2023-04-07T05:28:03.208Z,28.75
2023-04-07T05:30:33.785Z,29.13
2023-04-07T05:33:06.355Z,28.85
2023-04-07T05:35:35.934Z,28.80
2023-04-07T05:38:07.173Z,28.52
2023-04-07T05:40:37.406Z,28.89
2023-04-07T05:43:07.668Z,28.65
2023-04-07T05:45:37.099Z,28.64
2023-04-07T05:48:06.976Z,28.72
2023-04-07T05:50:36.283Z,28.64
2023-04-07T05:53:07.361Z,28.45
2023-04-07T05:55:36.536Z,28.76
2023-04-07T05:58:06.143Z,28.72
2023-04-07T06:00:39.627Z,28.18
2023-04-07T06:03:08.894Z,28.55
2023-04-07T06:05:38.699Z,28.99
2023-04-07T06:08:10.534Z,28.50
2023-04-07T06:10:40.368Z,28.58
2023-04-07T06:13:10.277Z,28.27
2023-04-07T06:15:39.925Z,28.37
2023-04-07T06:18:09.663Z,28.18
2023-04-07T06:20:43.401Z,27.76
2023-04-07T06:23:19.363Z,27.46
2023-04-07T06:25:52.247Z,28.03
2023-04-07T06:28:22.515Z,27.97
2023-04-07T06:30:58.406Z,27.91
2023-04-07T06:33:29.208Z,27.81
2023-04-07T06:36:00.221Z,27.47
2023-04-07T06:38:31.768Z,27.73
2023-04-07T06:41:06.724Z,27.33
2023-04-07T06:43:36.025Z,27.29
2023-04-07T06:46:08.291Z,27.06
2023-04-07T06:48:37.756Z,27.08
2023-04-07T06:51:07.356Z,26.84
2023-04-07T06:53:38.115Z,26.62
2023-04-07T06:56:08.437Z,26.74
2023-04-07T06:58:38.494Z,26.70
2023-04-07T07:01:08.287Z,26.75
2023-04-07T07:03:37.678Z,26.90
2023-04-07T07:06:06.900Z,26.70
2023-04-07T07:08:37.619Z,26.73
2023-04-07T07:11:06.690Z,26.59
2023-04-07T07:13:36.461Z,26.66
2023-04-07T07:16:06.053Z,26.63
2023-04-07T07:18:43.637Z,26.94
2023-04-07T07:21:24.661Z,26.52
2023-04-07T07:23:57.864Z,25.73
2023-04-07T07:26:27.625Z,26.82
2023-04-07T07:29:11.337Z,26.46
2023-04-07T07:31:40.860Z,26.69
2023-04-07T07:34:13.252Z,26.84
2023-04-07T07:36:44.838Z,26.83
2023-04-07T07:39:16.346Z,26.68
2023-04-07T07:41:48.576Z,26.66
2023-04-07T07:44:22.583Z,26.88
2023-04-07T07:46:51.425Z,26.95
2023-04-07T07:49:20.700Z,26.99
2023-04-07T07:51:49.852Z,27.03
2023-04-07T07:54:20.373Z,26.65
2023-04-07T07:59:54.868Z,26.24
2023-04-07T08:02:32.177Z,26.67
2023-04-07T08:05:06.059Z,26.47
2023-04-07T08:07:38.253Z,26.80
2023-04-07T08:10:09.988Z,26.41
2023-04-07T08:12:39.861Z,26.68
2023-04-07T08:15:10.618Z,26.83
2023-04-07T08:18:00.130Z,26.46
2023-04-07T08:20:36.389Z,26.71
2023-04-07T08:23:06.718Z,26.93
2023-04-07T08:25:37.537Z,26.42
2023-04-07T08:28:08.237Z,26.32
2023-04-07T08:30:38.679Z,26.07
2023-04-07T08:33:08.532Z,26.06
2023-04-07T08:35:37.815Z,26.11
2023-04-07T08:38:09.268Z,26.48
2023-04-07T08:40:41.130Z,26.01
2023-04-07T08:43:11.116Z,24.70
2023-04-07T08:45:45.115Z,26.03
2023-04-07T08:48:19.094Z,25.78
2023-04-07T08:50:54.927Z,26.34
2023-04-07T08:53:30.248Z,26.08
2023-04-07T08:56:08.349Z,26.11
2023-04-07T08:58:38.726Z,26.41
2023-04-07T09:01:08.869Z,26.03
2023-04-07T09:03:42.931Z,26.12
2023-04-07T09:06:19.532Z,25.53
2023-04-07T09:08:49.226Z,26.35
2023-04-07T09:11:20.854Z,26.18
2023-04-07T09:13:59.277Z,26.23
2023-04-07T09:16:36.428Z,25.86
2023-04-07T09:19:07.124Z,26.34
2023-04-07T09:21:51.762Z,25.55
2023-04-07T09:24:27.314Z,25.69
2023-04-07T09:27:21.391Z,24.99
2023-04-07T09:29:53.578Z,25.74
2023-04-07T09:32:39.567Z,25.29
2023-04-07T09:35:20.968Z,25.84
2023-04-07T09:38:07.167Z,25.17
2023-04-07T09:40:43.916Z,26.04
2023-04-07T09:43:21.152Z,25.79
2023-04-07T09:45:53.585Z,26.50
2023-04-07T09:48:23.698Z,26.41
2023-04-07T09:50:54.261Z,26.60
2023-04-07T09:53:44.391Z,26.03
2023-04-07T09:56:14.779Z,26.82
2023-04-07T09:58:48.044Z,25.96
2023-04-07T10:01:21.118Z,26.79
2023-04-07T10:03:53.246Z,26.92
2023-04-07T10:06:24.728Z,27.32
2023-04-07T10:08:55.861Z,27.32
2023-04-07T10:11:26.796Z,27.14
2023-04-07T10:14:00.630Z,26.77
2023-04-07T10:16:33.006Z,27.15
2023-04-07T10:19:03.914Z,27.24
2023-04-07T10:21:33.161Z,27.24
2023-04-07T10:24:23.828Z,27.00
2023-04-07T10:27:11.950Z,27.09
2023-04-07T10:29:59.585Z,26.80
2023-04-07T10:32:31.679Z,27.02
2023-04-07T10:35:04.457Z,27.03
2023-04-07T10:37:36.687Z,26.81
2023-04-07T10:40:33.388Z,26.23
2023-04-07T10:43:04.401Z,27.31
2023-04-07T10:46:01.153Z,26.54
2023-04-07T10:48:37.323Z,27.54
2023-04-07T10:51:24.790Z,26.60
2023-04-07T10:54:26.786Z,26.15
2023-04-07T10:57:15.028Z,26.51
2023-04-07T11:00:19.780Z,26.50
2023-04-07T11:02:52.553Z,27.48
2023-04-07T11:05:23.972Z,27.44
2023-04-07T11:07:59.661Z,27.33
2023-04-07T11:10:28.837Z,28.03
2023-04-07T11:13:02.853Z,27.51
2023-04-07T11:15:32.926Z,28.59
2023-04-07T11:18:18.409Z,27.55
2023-04-07T11:20:51.802Z,28.16
2023-04-07T11:23:23.421Z,28.02
2023-04-07T11:26:07.646Z,27.45
2023-04-07T11:28:42.128Z,27.86
2023-04-07T11:31:13.428Z,28.29
2023-04-07T11:33:54.415Z,27.89
2023-04-07T11:36:31.134Z,27.85
2023-04-07T11:39:01.604Z,28.21
2023-04-07T11:41:32.909Z,28.30
2023-04-07T11:44:08.608Z,27.47
2023-04-07T11:46:38.190Z,28.10
2023-04-07T11:49:13.314Z,27.54
2023-04-07T11:51:44.249Z,27.75
2023-04-07T11:54:13.580Z,27.50
2023-04-07T11:56:48.007Z,26.51
2023-04-07T11:59:27.224Z,26.63
2023-04-07T12:01:58.116Z,27.25
2023-04-07T12:04:29.012Z,25.80
2023-04-07T12:07:09.090Z,26.24
2023-04-07T12:09:38.878Z,27.25
2023-04-07T12:12:10.819Z,27.03
2023-04-07T12:14:40.201Z,26.97
2023-04-07T12:17:09.636Z,27.32
2023-04-07T12:19:40.074Z,26.91
2023-04-07T12:22:09.042Z,27.33
2023-04-07T12:24:48.228Z,27.42
2023-04-07T12:27:19.330Z,27.12
2023-04-07T12:29:54.236Z,27.64
2023-04-07T12:32:23.046Z,27.96
2023-04-07T12:34:54.268Z,27.91
2023-04-07T12:37:26.596Z,28.00
2023-04-07T12:39:55.700Z,27.84
2023-04-07T12:42:24.286Z,28.00
2023-04-07T12:44:56.974Z,27.88
2023-04-07T12:47:25.704Z,27.85
2023-04-07T12:49:59.223Z,27.61
2023-04-07T12:52:30.869Z,28.11
2023-04-07T12:54:59.979Z,28.29
2023-04-07T12:57:29.088Z,28.16
2023-04-07T13:00:01.781Z,27.93
2023-04-07T13:02:33.130Z,26.92
2023-04-07T13:05:06.501Z,27.82
2023-04-07T13:07:37.525Z,27.92
2023-04-07T13:10:08.626Z,27.75
2023-04-07T13:12:40.397Z,27.60
2023-04-07T13:15:10.231Z,27.97
2023-04-07T13:17:41.744Z,27.91
2023-04-07T13:20:13.464Z,27.26
2023-04-07T13:22:50.624Z,26.30
2023-04-07T13:25:33.799Z,27.14
2023-04-07T13:28:03.066Z,27.58
2023-04-07T13:30:33.006Z,27.70
2023-04-07T13:33:01.932Z,28.08
2023-04-07T13:35:36.172Z,27.75
2023-04-07T13:38:06.022Z,28.48
2023-04-07T13:40:38.672Z,28.39
2023-04-07T13:43:12.743Z,28.79
2023-04-07T13:45:51.314Z,27.94
2023-04-07T13:48:29.469Z,28.71
2023-04-07T13:51:01.612Z,28.30
2023-04-07T13:53:31.545Z,28.78
2023-04-07T13:56:04.461Z,28.33
2023-04-07T13:58:36.879Z,28.63
2023-04-07T14:01:17.870Z,28.54
2023-04-07T14:03:53.498Z,28.21
2023-04-07T14:06:25.080Z,28.32
2023-04-07T14:08:54.505Z,28.50
2023-04-07T14:11:24.228Z,28.10
2023-04-07T14:13:54.711Z,28.36
2023-04-07T14:16:27.817Z,28.19
2023-04-07T14:19:05.461Z,27.99
2023-04-07T14:21:40.025Z,27.98
2023-04-07T14:24:14.627Z,28.13
2023-04-07T14:26:48.302Z,28.02
2023-04-07T14:29:36.519Z,27.43
2023-04-07T14:32:16.588Z,27.53
2023-04-07T14:34:45.875Z,28.39
2023-04-07T14:37:19.111Z,27.84
2023-04-07T14:40:01.846Z,28.26
2023-04-07T14:42:36.215Z,28.01
2023-04-07T14:45:16.460Z,28.54
2023-04-07T14:47:46.242Z,28.28
2023-04-07T14:50:15.422Z,28.53
2023-04-07T14:52:46.936Z,28.21
2023-04-07T14:55:16.672Z,28.41
2023-04-07T14:57:46.231Z,28.43
2023-04-07T15:00:19.585Z,28.57
2023-04-07T15:02:54.948Z,28.89
2023-04-07T15:05:28.863Z,29.05
2023-04-07T15:08:03.225Z,28.63
2023-04-07T15:10:36.517Z,28.95
2023-04-07T15:13:06.289Z,28.83
2023-04-07T15:15:41.063Z,29.17
2023-04-07T15:18:13.490Z,28.89
2023-04-07T15:20:43.332Z,29.35
2023-04-07T15:23:15.293Z,28.70
2023-04-07T15:25:49.467Z,28.76
2023-04-07T15:28:21.161Z,28.56
2023-04-07T15:30:52.131Z,29.14
2023-04-07T15:33:25.384Z,28.91
2023-04-07T15:35:55.281Z,28.73
2023-04-07T15:38:26.804Z,28.73
2023-04-07T15:40:56.646Z,28.54
2023-04-07T15:43:26.034Z,28.50
2023-04-07T15:45:56.486Z,28.46
2023-04-07T15:48:26.177Z,28.61
2023-04-07T15:50:56.201Z,28.55
2023-04-07T15:53:30.995Z,28.29
2023-04-07T15:56:05.132Z,28.57
2023-04-07T15:58:40.933Z,28.80
2023-04-07T16:01:17.521Z,28.54
2023-04-07T16:04:19.697Z,27.97
2023-04-07T16:06:52.479Z,28.05
2023-04-07T16:09:28.184Z,27.76
2023-04-07T16:11:57.633Z,28.05
2023-04-07T16:14:34.305Z,27.80
2023-04-07T16:17:07.477Z,28.50
2023-04-07T16:19:43.953Z,28.25
2023-04-07T16:22:12.996Z,28.50
2023-04-07T16:24:46.024Z,28.05
2023-04-07T16:27:15.352Z,28.67
2023-04-07T16:29:44.838Z,28.46
2023-04-07T16:32:14.993Z,28.44
2023-04-07T16:34:59.603Z,28.21
2023-04-07T16:37:30.535Z,29.03
2023-04-07T16:40:01.917Z,28.71
2023-04-07T16:42:30.870Z,29.06
2023-04-07T16:45:04.470Z,28.87
2023-04-07T16:50:25.929Z,28.35
2023-04-07T16:52:57.529Z,29.16
2023-04-07T16:55:29.545Z,28.82
2023-04-07T16:57:59.076Z,28.89
2023-04-07T17:00:33.239Z,29.41
2023-04-07T17:03:02.297Z,29.42
2023-04-07T17:05:34.710Z,29.44
2023-04-07T17:08:06.010Z,29.12
2023-04-07T17:10:36.724Z,29.13
2023-04-07T17:13:05.715Z,29.21
2023-04-07T17:15:37.980Z,29.01
2023-04-07T17:18:07.169Z,29.48
2023-04-07T17:20:36.324Z,29.18
2023-04-07T17:23:09.515Z,29.54
2023-04-07T17:25:43.267Z,29.08
2023-04-07T17:28:20.472Z,29.71
2023-04-07T17:30:50.532Z,29.55
2023-04-07T17:33:19.824Z,29.68
2023-04-07T17:35:55.352Z,29.79
2023-04-07T17:38:27.031Z,30.20
2023-04-07T17:41:04.950Z,29.64
2023-04-07T17:43:40.522Z,29.72
2023-04-07T17:46:11.220Z,29.86
2023-04-07T17:48:40.885Z,29.81
2023-04-07T17:51:12.716Z,29.64
2023-04-07T17:53:41.789Z,29.69
2023-04-07T17:56:12.842Z,29.83
2023-04-07T17:58:46.218Z,29.51
2023-04-07T18:01:18.953Z,30.04
2023-04-07T18:03:50.981Z,30.15
2023-04-07T18:06:20.993Z,30.06
2023-04-07T18:08:50.708Z,30.32
2023-04-07T18:11:22.437Z,29.62
2023-04-07T18:13:57.148Z,29.37
2023-04-07T18:16:26.671Z,30.04
2023-04-07T18:19:00.679Z,29.91
2023-04-07T18:21:32.026Z,30.00
2023-04-07T18:24:02.987Z,29.80
2023-04-07T18:26:33.327Z,28.32
2023-04-07T18:29:11.015Z,29.40
2023-04-07T18:31:42.451Z,29.80
2023-04-07T18:34:13.118Z,29.77
2023-04-07T18:36:43.173Z,30.06
2023-04-07T18:39:13.663Z,30.21
2023-04-07T18:41:46.630Z,29.49
2023-04-07T18:44:15.729Z,29.90
2023-04-07T18:46:50.075Z,30.01
2023-04-07T18:49:19.354Z,30.35
2023-04-07T18:51:49.447Z,30.52
2023-04-07T18:54:19.907Z,30.06
2023-04-07T18:56:56.405Z,29.91
2023-04-07T18:59:26.261Z,30.08
2023-04-07T19:01:56.626Z,30.38
2023-04-07T19:04:28.164Z,30.34
2023-04-07T19:06:57.765Z,30.75
2023-04-07T19:09:27.225Z,30.57
2023-04-07T19:11:58.283Z,30.23
2023-04-07T19:14:33.563Z,30.53
2023-04-07T19:17:06.344Z,30.37
2023-04-07T19:19:35.909Z,30.42
2023-04-07T19:22:05.450Z,30.86
2023-04-07T19:24:36.355Z,29.19
2023-04-07T19:27:09.463Z,29.16
2023-04-07T19:29:38.517Z,30.53
2023-04-07T19:32:08.040Z,31.06
2023-04-07T19:34:43.008Z,30.36
2023-04-07T19:37:12.131Z,30.88
2023-04-07T19:40:01.544Z,30.98
2023-04-07T19:42:33.526Z,30.62
2023-04-07T19:45:02.794Z,30.84
2023-04-07T19:47:32.855Z,30.94
2023-04-07T19:50:02.442Z,31.09
2023-04-07T19:52:33.353Z,31.03
2023-04-07T19:55:03.909Z,31.00
2023-04-07T19:57:35.339Z,30.93
2023-04-07T20:00:05.682Z,29.62
2023-04-07T20:02:35.918Z,30.87
2023-04-07T20:05:08.605Z,30.76
2023-04-07T20:07:38.002Z,31.01
2023-04-07T20:10:07.892Z,30.87
2023-04-07T20:12:39.444Z,30.88
2023-04-07T20:15:09.912Z,30.61
2023-04-07T20:17:40.125Z,30.79
2023-04-07T20:20:15.773Z,30.82
2023-04-07T20:22:45.515Z,31.04
2023-04-07T20:25:14.454Z,30.88
2023-04-07T20:27:46.809Z,30.74
2023-04-07T20:30:16.398Z,30.86
2023-04-07T20:32:47.138Z,30.71
2023-04-07T20:35:16.089Z,31.14
2023-04-07T20:37:45.877Z,31.10
2023-04-07T20:40:14.963Z,31.11
2023-04-07T20:42:47.649Z,30.83
2023-04-07T20:45:16.369Z,29.49
2023-04-07T20:47:45.889Z,31.02
2023-04-07T20:50:14.759Z,30.96
2023-04-07T20:52:45.786Z,30.29
2023-04-07T20:55:14.924Z,30.54
2023-04-07T20:57:44.036Z,30.81
2023-04-07T21:00:18.935Z,30.23
2023-04-07T21:02:48.819Z,30.99
2023-04-07T21:05:17.564Z,30.76
2023-04-07T21:07:46.578Z,30.93
2023-04-07T21:10:18.259Z,30.74
2023-04-07T21:12:49.450Z,30.61
2023-04-07T21:15:19.768Z,30.55
2023-04-07T21:17:48.746Z,31.25
2023-04-07T21:20:17.766Z,31.78
2023-04-07T21:22:47.380Z,31.92
2023-04-07T21:25:16.255Z,32.03
2023-04-07T21:27:45.657Z,32.06
2023-04-07T21:30:18.917Z,31.26
2023-04-07T21:32:48.086Z,32.18
2023-04-07T21:35:17.808Z,31.99
2023-04-07T21:37:47.050Z,32.60
2023-04-07T21:40:17.008Z,32.62
2023-04-07T21:42:48.316Z,33.82
2023-04-07T21:45:18.935Z,33.26
2023-04-07T21:47:47.865Z,33.43
2023-04-07T21:50:17.178Z,33.01
2023-04-07T21:53:01.247Z,31.62
2023-04-07T21:55:33.174Z,33.94
2023-04-07T21:58:07.920Z,33.88
2023-04-07T22:00:39.296Z,34.83
2023-04-07T22:03:08.857Z,34.90
2023-04-07T22:05:44.276Z,34.96
2023-04-07T22:08:24.592Z,34.44
2023-04-07T22:11:05.480Z,34.85
2023-04-07T22:13:38.163Z,34.69
2023-04-07T22:16:08.990Z,33.97
2023-04-07T22:18:44.722Z,34.29
2023-04-07T22:21:14.420Z,34.04
2023-04-07T22:23:54.281Z,34.05
2023-04-07T22:26:24.172Z,34.84
2023-04-07T22:29:03.781Z,33.51
2023-04-07T22:31:37.030Z,34.04
2023-04-07T22:34:07.070Z,33.87
2023-04-07T22:36:36.860Z,33.67
2023-04-07T22:39:09.321Z,34.58
2023-04-07T22:41:38.739Z,34.46
2023-04-07T22:44:38.551Z,33.91
2023-04-07T22:50:19.624Z,33.48
2023-04-07T22:52:53.773Z,34.53
2023-04-07T22:55:24.412Z,33.99
2023-04-07T23:00:55.727Z,33.92
2023-04-07T23:03:32.113Z,34.74
2023-04-07T23:06:25.733Z,33.74
2023-04-07T23:08:55.704Z,34.39
2023-04-07T23:11:24.108Z,34.32
2023-04-07T23:13:52.823Z,34.67
2023-04-07T23:16:21.133Z,34.84
2023-04-07T23:18:49.876Z,33.51
2023-04-07T23:21:20.001Z,33.57
2023-04-07T23:23:48.866Z,33.64
2023-04-07T23:26:18.044Z,33.93
2023-04-07T23:28:47.001Z,34.06
2023-04-07T23:31:15.356Z,34.65
2023-04-07T23:33:43.792Z,33.93
2023-04-07T23:36:12.056Z,34.52
2023-04-07T23:38:42.124Z,33.85
2023-04-07T23:41:10.480Z,33.14
2023-04-07T23:43:39.540Z,34.54
2023-04-07T23:46:08.003Z,33.66
2023-04-07T23:48:36.825Z,34.11
2023-04-07T23:51:05.152Z,34.68
2023-04-07T23:53:33.676Z,34.72
2023-04-07T23:56:03.501Z,34.37
2023-04-07T23:58:31.934Z,34.62
